Time;durP1;ratioP1;P1;durP2;ratioP2;P2;SDS_P1;SDS_P2;PMS_P1;PMS_P2;Temp;Humidity;BMP_temperature;BMP_pressure;BME280_temperature;BME280_humidity;BME280_pressure;Samples;Min_cycle;Max_cycle;Signal;HPM_P1;HPM_P2
2023/01/26 00:00:24;;;;;;;80.45;23.02;;;1.20;99.90;;;;;;5050884;28;20045;-80
2023/01/26 00:03:10;;;;;;;66.85;19.80;;;1.20;99.90;;;;;;5051256;28;20531;-77
2023/01/26 00:05:56;;;;;;;87.25;26.33;;;1.20;99.90;;;;;;5056569;28;20511;-79
2023/01/26 00:08:45;;;;;;;87.70;24.10;;;1.20;99.90;;;;;;5050730;28;20057;-80
2023/01/26 00:11:31;;;;;;;87.32;25.42;;;1.20;99.90;;;;;;5051004;28;20064;-81
2023/01/26 00:14:17;;;;;;;79.28;24.00;;;1.20;99.90;;;;;;5033908;28;20059;-80
2023/01/26 00:17:03;;;;;;;80.35;24.13;;;1.20;99.90;;;;;;5050187;28;20049;-80
2023/01/26 00:19:49;;;;;;;83.72;27.10;;;1.20;99.90;;;;;;5051490;28;20052;-80
2023/01/26 00:22:35;;;;;;;93.78;26.90;;;1.20;99.90;;;;;;5034167;28;20041;-82
2023/01/26 00:25:21;;;;;;;91.78;27.58;;;1.20;99.90;;;;;;5055356;28;20136;-81
2023/01/26 00:28:07;;;;;;;85.28;22.77;;;1.30;99.90;;;;;;5037139;28;20060;-80
2023/01/26 00:31:00;;;;;;;89.30;24.73;;;1.30;99.90;;;;;;5050287;28;20053;-80
2023/01/26 00:33:46;;;;;;;99.03;26.75;;;1.30;99.90;;;;;;5051454;28;20085;-82
2023/01/26 00:36:32;;;;;;;86.53;26.63;;;1.30;99.90;;;;;;5033813;28;20044;-79
2023/01/26 00:39:19;;;;;;;89.32;26.98;;;1.30;99.90;;;;;;5034989;28;20053;-78
2023/01/26 00:42:12;;;;;;;92.75;26.05;;;1.30;99.90;;;;;;5037725;28;20053;-79
2023/01/26 00:44:58;;;;;;;91.47;25.70;;;1.30;99.90;;;;;;5035842;28;20053;-80
2023/01/26 00:47:44;;;;;;;88.10;28.48;;;1.30;99.90;;;;;;5051334;28;20045;-80
2023/01/26 00:50:30;;;;;;;100.55;27.33;;;1.30;99.90;;;;;;5050890;28;20056;-81
2023/01/26 00:53:16;;;;;;;99.55;26.33;;;1.30;99.90;;;;;;5051025;28;20056;-79
2023/01/26 00:56:03;;;;;;;91.68;27.15;;;1.30;99.90;;;;;;5053108;28;20041;-80
2023/01/26 00:58:49;;;;;;;103.13;27.42;;;1.30;99.90;;;;;;5037005;28;20052;-80
2023/01/26 01:01:35;;;;;;;96.25;25.73;;;1.30;99.90;;;;;;5053010;28;20110;-81
2023/01/26 01:04:21;;;;;;;96.05;27.33;;;1.30;99.90;;;;;;5053807;28;20072;-80
2023/01/26 01:07:07;;;;;;;93.75;28.58;;;1.40;99.90;;;;;;5032830;28;20049;-79
2023/01/26 01:09:53;;;;;;;93.47;27.48;;;1.40;99.90;;;;;;5031605;28;20138;-80
2023/01/26 01:12:39;;;;;;;103.90;30.15;;;1.40;99.90;;;;;;5036369;28;20057;-80
2023/01/26 01:15:25;;;;;;;200.97;141.13;;;1.40;99.90;;;;;;5056644;28;20142;-78
2023/01/26 01:18:11;;;;;;;124.63;32.15;;;1.40;99.90;;;;;;5052660;28;20421;-81
2023/01/26 01:20:57;;;;;;;117.13;30.20;;;1.50;99.90;;;;;;5054703;28;20048;-78
2023/01/26 01:23:43;;;;;;;111.18;28.23;;;1.40;99.90;;;;;;5028089;28;20067;-79
2023/01/26 01:26:29;;;;;;;111.88;27.33;;;1.40;99.90;;;;;;5036320;28;20114;-80
2023/01/26 01:29:15;;;;;;;103.85;31.30;;;1.40;99.90;;;;;;5035897;28;20483;-79
2023/01/26 01:32:01;;;;;;;104.53;27.65;;;1.50;99.90;;;;;;5021625;28;20092;-81
2023/01/26 01:34:48;;;;;;;123.78;29.75;;;1.50;99.90;;;;;;5035615;28;20405;-82
2023/01/26 01:37:35;;;;;;;109.07;28.15;;;1.50;99.90;;;;;;5054151;28;20061;-81
2023/01/26 01:40:21;;;;;;;130.73;32.45;;;1.50;99.90;;;;;;5039050;28;20102;-80
2023/01/26 01:43:11;;;;;;;140.57;31.08;;;1.60;99.90;;;;;;5053660;28;20118;-83
2023/01/26 01:46:19;;;;;;;128.55;31.95;;;1.60;99.90;;;;;;5056624;28;20061;-80
2023/01/26 01:49:26;;;;;;;130.60;32.72;;;1.60;99.90;;;;;;5053651;28;20055;-81
2023/01/26 01:52:16;;;;;;;131.05;32.00;;;1.60;99.90;;;;;;5039206;28;20492;-82
2023/01/26 01:55:08;;;;;;;158.80;35.65;;;1.70;99.90;;;;;;5038886;28;20053;-81
2023/01/26 01:57:59;;;;;;;127.95;32.88;;;1.70;99.90;;;;;;5052697;28;20517;-81
2023/01/26 02:00:45;;;;;;;135.15;31.10;;;1.70;99.90;;;;;;5042168;28;20191;-80
2023/01/26 02:03:33;;;;;;;133.65;34.97;;;1.80;99.90;;;;;;5055303;28;20056;-80
2023/01/26 02:06:24;;;;;;;139.10;33.33;;;1.80;99.90;;;;;;5034932;28;20375;-82
2023/01/26 02:10:17;;;;;;;135.20;31.80;;;1.80;99.90;;;;;;5053006;28;20389;-80
2023/01/26 02:12:20;;;;;;;146.05;33.33;;;1.80;99.90;;;;;;5053803;28;20048;-78
2023/01/26 02:15:07;;;;;;;142.50;33.75;;;1.90;99.90;;;;;;5051977;28;20040;-82
2023/01/26 02:17:54;;;;;;;130.85;34.47;;;1.90;99.90;;;;;;5056423;28;20049;-82
2023/01/26 02:20:42;;;;;;;136.73;32.35;;;1.90;99.90;;;;;;5038813;28;20045;-81
2023/01/26 02:23:47;;;;;;;133.57;34.45;;;1.90;99.90;;;;;;5052830;28;20067;-80
2023/01/26 02:26:35;;;;;;;148.40;35.22;;;2.00;99.90;;;;;;5053391;28;20067;-79
2023/01/26 02:29:21;;;;;;;133.32;31.10;;;2.00;99.90;;;;;;5052808;28;20053;-79
2023/01/26 02:32:07;;;;;;;136.25;32.60;;;2.00;99.90;;;;;;5052905;28;20420;-79
2023/01/26 02:34:57;;;;;;;140.02;31.60;;;2.10;99.90;;;;;;5035830;28;20057;-82
2023/01/26 02:37:43;;;;;;;119.55;30.88;;;2.10;99.90;;;;;;5040920;28;20045;-79
2023/01/26 02:40:46;;;;;;;147.10;31.45;;;2.10;99.90;;;;;;5054221;28;20045;-80
2023/01/26 02:43:32;;;;;;;139.50;31.33;;;2.10;99.90;;;;;;5051863;28;20060;-79
2023/01/26 02:46:18;;;;;;;166.40;35.50;;;2.20;99.90;;;;;;5052418;28;20573;-79
2023/01/26 02:52:09;;;;;;;103.82;30.23;;;2.20;99.90;;;;;;5033812;28;20538;-81
2023/01/26 02:58:02;;;;;;;130.30;33.13;;;2.30;99.90;;;;;;5052996;28;20060;-79
2023/01/26 03:00:48;;;;;;;121.20;29.95;;;2.30;99.90;;;;;;5051859;28;20061;-80
2023/01/26 03:03:40;;;;;;;172.27;37.58;;;2.30;99.90;;;;;;5034280;28;20053;-80
2023/01/26 03:06:26;;;;;;;129.40;30.90;;;2.40;99.90;;;;;;5033766;28;20183;-80
2023/01/26 03:09:12;;;;;;;151.20;37.33;;;2.40;99.90;;;;;;5032736;28;20057;-79
2023/01/26 03:11:58;;;;;;;160.18;34.42;;;2.40;99.90;;;;;;5053023;28;20056;-81
2023/01/26 03:14:45;;;;;;;142.30;32.55;;;2.50;99.90;;;;;;5055115;28;20132;-80
2023/01/26 03:17:31;;;;;;;146.68;34.72;;;2.50;99.90;;;;;;5051730;28;20152;-81
2023/01/26 03:29:31;;;;;;;36.03;7.13;;;2.70;99.90;;;;;;5051285;28;20087;-80
2023/01/26 03:32:17;;;;;;;43.53;6.38;;;3.10;99.90;;;;;;5032575;28;20148;-81
2023/01/26 03:35:04;;;;;;;57.60;7.13;;;3.60;99.90;;;;;;5052919;28;20049;-81
2023/01/26 03:37:53;;;;;;;45.92;9.70;;;3.90;99.90;;;;;;5051531;28;20048;-80
2023/01/26 03:56:23;;;;;;;52.78;7.10;;;4.80;99.90;;;;;;5050173;28;20136;-80
2023/01/26 03:59:11;;;;;;;52.00;6.40;;;4.80;99.90;;;;;;5051320;28;20213;-79
2023/01/26 04:08:25;;;;;;;64.97;9.43;;;5.00;99.90;;;;;;5032222;28;20045;-80
2023/01/26 04:11:12;;;;;;;44.83;8.85;;;5.00;99.90;;;;;;5032586;28;20049;-78
2023/01/26 04:23:19;;;;;;;31.45;5.55;;;5.20;99.90;;;;;;5049648;28;20144;-80
2023/01/26 04:26:05;;;;;;;44.75;6.07;;;5.20;99.90;;;;;;5050878;28;20155;-79
2023/01/26 04:28:51;;;;;;;42.50;6.68;;;5.30;99.90;;;;;;5049822;28;20473;-79
2023/01/26 04:31:38;;;;;;;63.42;8.88;;;5.30;99.90;;;;;;5038453;28;20057;-80
2023/01/26 04:34:24;;;;;;;86.28;9.70;;;5.30;99.90;;;;;;5052342;28;20053;-82
2023/01/26 04:37:10;;;;;;;49.47;8.07;;;5.20;99.90;;;;;;5049442;28;20045;-79
2023/01/26 04:39:56;;;;;;;48.35;6.28;;;5.20;99.90;;;;;;5032642;28;20090;-79
2023/01/26 04:42:42;;;;;;;36.47;5.47;;;5.20;99.90;;;;;;5050404;28;20527;-80
2023/01/26 04:45:28;;;;;;;52.80;9.02;;;5.20;99.90;;;;;;5049542;28;20080;-82
2023/01/26 04:48:14;;;;;;;45.50;6.55;;;5.20;99.90;;;;;;5032809;28;20063;-81
2023/01/26 04:51:06;;;;;;;57.60;7.97;;;5.10;99.90;;;;;;5050010;28;20409;-79
2023/01/26 04:53:53;;;;;;;39.22;6.68;;;5.10;99.90;;;;;;5051025;28;20146;-80
2023/01/26 04:56:39;;;;;;;39.92;6.70;;;5.00;99.90;;;;;;5051255;28;20135;-79
2023/01/26 04:59:25;;;;;;;61.30;6.68;;;5.00;99.90;;;;;;5050931;28;20056;-79
2023/01/26 05:02:11;;;;;;;61.92;8.13;;;5.00;99.90;;;;;;5050840;28;20123;-80
2023/01/26 05:04:57;;;;;;;39.03;5.35;;;4.90;99.90;;;;;;5050857;28;20067;-80
2023/01/26 05:07:43;;;;;;;66.03;8.13;;;4.90;99.90;;;;;;5052143;28;20052;-80
2023/01/26 05:10:29;;;;;;;37.75;6.13;;;4.80;99.90;;;;;;5035447;28;20056;-80
2023/01/26 05:13:15;;;;;;;44.20;5.93;;;4.80;99.90;;;;;;5049546;28;20049;-79
2023/01/26 05:16:02;;;;;;;48.33;6.07;;;4.80;99.90;;;;;;5050225;28;20495;-79
2023/01/26 05:18:48;;;;;;;34.17;6.65;;;4.80;99.90;;;;;;5035909;28;20060;-79
2023/01/26 05:21:34;;;;;;;41.10;6.75;;;4.80;99.90;;;;;;5049535;28;20556;-79
2023/01/26 05:24:20;;;;;;;47.38;7.88;;;4.80;99.90;;;;;;5051923;28;20045;-78
2023/01/26 05:27:21;;;;;;;37.20;6.20;;;4.80;99.90;;;;;;5049352;28;20052;-83
2023/01/26 05:30:09;;;;;;;36.25;6.78;;;4.80;99.90;;;;;;5049689;28;20056;-79
2023/01/26 05:33:04;;;;;;;35.50;5.43;;;4.80;99.90;;;;;;5032832;28;20134;-79
2023/01/26 05:35:51;;;;;;;56.92;8.10;;;4.80;99.90;;;;;;5031961;28;20040;-82
2023/01/26 05:38:37;;;;;;;39.25;6.22;;;4.70;99.90;;;;;;5020467;28;20049;-79
2023/01/26 05:41:23;;;;;;;36.55;6.32;;;4.80;99.90;;;;;;5053887;28;20103;-78
2023/01/26 05:44:09;;;;;;;43.42;5.45;;;4.80;99.90;;;;;;5032583;28;20041;-79
2023/01/26 05:46:55;;;;;;;41.22;6.43;;;4.70;99.90;;;;;;5049071;28;20048;-79
2023/01/26 05:49:44;;;;;;;39.97;5.32;;;4.70;99.90;;;;;;5034576;28;20048;-82
2023/01/26 05:52:31;;;;;;;27.90;5.28;;;4.70;99.90;;;;;;5048480;28;20052;-80
2023/01/26 05:55:17;;;;;;;41.17;5.97;;;4.60;99.90;;;;;;5049815;28;20072;-80
2023/01/26 05:58:03;;;;;;;38.88;5.75;;;4.60;99.90;;;;;;5054345;28;20049;-82
2023/01/26 06:00:49;;;;;;;50.35;6.22;;;4.60;99.90;;;;;;5054750;28;20057;-80
2023/01/26 06:03:35;;;;;;;47.70;7.70;;;4.60;99.90;;;;;;5054483;28;20061;-79
2023/01/26 06:06:21;;;;;;;39.97;7.47;;;4.60;99.90;;;;;;5032059;28;20136;-81
2023/01/26 06:09:07;;;;;;;37.97;5.78;;;4.50;99.90;;;;;;5032699;28;20053;-79
2023/01/26 06:11:53;;;;;;;49.63;6.30;;;4.50;99.90;;;;;;5032216;28;20050;-81
2023/01/26 06:14:39;;;;;;;42.78;5.70;;;4.50;99.90;;;;;;5035917;28;20046;-79
2023/01/26 06:17:25;;;;;;;53.13;7.07;;;4.50;99.90;;;;;;5033518;28;20099;-80
2023/01/26 06:20:13;;;;;;;44.35;6.20;;;4.50;99.90;;;;;;5032126;28;20073;-80
2023/01/26 06:23:00;;;;;;;35.47;4.88;;;4.50;99.90;;;;;;5018350;28;20050;-82
2023/01/26 06:25:46;;;;;;;46.72;6.70;;;4.50;99.90;;;;;;5030890;28;20131;-84
2023/01/26 06:28:32;;;;;;;42.05;7.47;;;4.60;99.90;;;;;;5033708;28;20053;-79
2023/01/26 06:31:19;;;;;;;33.03;7.57;;;4.50;99.90;;;;;;5033541;28;20144;-82
2023/01/26 06:34:05;;;;;;;43.28;4.95;;;4.50;99.90;;;;;;5037586;28;20056;-79
2023/01/26 06:36:51;;;;;;;34.53;4.60;;;4.40;99.90;;;;;;5032882;28;20563;-80
2023/01/26 06:39:39;;;;;;;38.63;4.50;;;4.40;99.90;;;;;;5033074;28;20053;-83
2023/01/26 06:42:25;;;;;;;39.05;5.65;;;4.50;99.90;;;;;;5032652;28;20127;-79
2023/01/26 06:45:11;;;;;;;38.40;4.90;;;4.40;99.90;;;;;;5032686;28;20045;-80
2023/01/26 06:47:57;;;;;;;39.30;7.75;;;4.40;99.90;;;;;;5032674;28;20045;-79
2023/01/26 06:51:24;;;;;;;35.53;7.43;;;4.40;99.90;;;;;;5037678;28;20456;-80
2023/01/26 06:54:12;;;;;;;42.85;7.20;;;4.40;99.90;;;;;;5033042;28;20375;-79
2023/01/26 06:56:58;;;;;;;44.53;5.50;;;4.40;99.90;;;;;;5032261;28;20064;-80
2023/01/26 06:59:44;;;;;;;41.25;5.20;;;4.40;99.90;;;;;;5031871;28;20049;-80
2023/01/26 07:02:30;;;;;;;43.80;6.28;;;4.30;99.90;;;;;;5032696;28;20104;-79
2023/01/26 07:05:16;;;;;;;33.97;5.05;;;4.30;99.90;;;;;;5030983;28;20061;-82
2023/01/26 07:08:05;;;;;;;28.58;4.25;;;4.30;99.90;;;;;;5031017;28;20122;-83
2023/01/26 07:10:51;;;;;;;43.78;7.63;;;4.30;99.90;;;;;;5031606;28;20479;-79
2023/01/26 07:13:38;;;;;;;39.50;6.18;;;4.40;99.90;;;;;;5036558;28;20052;-82
2023/01/26 07:16:24;;;;;;;27.17;5.28;;;4.40;99.90;;;;;;5032395;28;20045;-82
2023/01/26 07:19:10;;;;;;;39.22;5.20;;;4.30;99.90;;;;;;5031579;28;20060;-83
2023/01/26 07:21:56;;;;;;;48.60;5.50;;;4.30;99.90;;;;;;5031848;28;20057;-81
2023/01/26 07:24:42;;;;;;;33.33;5.75;;;4.30;99.90;;;;;;5017327;28;20072;-82
2023/01/26 07:27:28;;;;;;;39.45;5.97;;;4.30;99.90;;;;;;5029697;28;20073;-82
2023/01/26 07:30:14;;;;;;;42.60;7.50;;;4.30;99.90;;;;;;5031919;28;20057;-82
2023/01/26 07:33:00;;;;;;;51.05;5.78;;;4.30;99.90;;;;;;5032115;28;20417;-80
2023/01/26 07:35:46;;;;;;;39.85;5.07;;;4.30;99.90;;;;;;5032517;28;20053;-83
2023/01/26 07:38:33;;;;;;;51.53;6.97;;;4.30;99.90;;;;;;5033273;28;20085;-82
2023/01/26 07:41:19;;;;;;;43.13;5.63;;;4.30;99.90;;;;;;5033097;28;20106;-81
2023/01/26 07:44:08;;;;;;;36.67;4.43;;;4.20;99.90;;;;;;5031945;28;20107;-83
2023/01/26 07:46:55;;;;;;;38.63;6.20;;;4.20;99.90;;;;;;5032055;28;20081;-82
2023/01/26 07:49:41;;;;;;;29.42;4.85;;;4.20;99.90;;;;;;5031829;28;20081;-78
2023/01/26 07:52:27;;;;;;;40.00;4.90;;;4.20;99.90;;;;;;5031939;28;20041;-82
2023/01/26 07:55:13;;;;;;;27.77;5.82;;;4.20;99.90;;;;;;5032266;28;20053;-81
2023/01/26 07:57:59;;;;;;;37.25;4.82;;;4.20;99.90;;;;;;5031530;28;20053;-82
2023/01/26 08:00:48;;;;;;;34.25;4.63;;;4.20;99.90;;;;;;5016937;28;20054;-79
2023/01/26 08:03:34;;;;;;;42.38;6.90;;;4.30;99.90;;;;;;5037131;28;20112;-78
2023/01/26 08:06:21;;;;;;;36.78;4.30;;;4.30;99.90;;;;;;5039672;28;20141;-82
2023/01/26 08:09:07;;;;;;;35.78;7.47;;;4.30;99.90;;;;;;5052484;28;20051;-82
2023/01/26 08:11:56;;;;;;;35.30;5.32;;;4.30;99.90;;;;;;5051551;28;20045;-79
2023/01/26 08:14:42;;;;;;;28.33;4.85;;;4.30;99.90;;;;;;5050504;28;20554;-79
2023/01/26 08:17:29;;;;;;;31.55;5.47;;;4.40;99.90;;;;;;5035692;28;20579;-79
2023/01/26 08:20:15;;;;;;;37.80;5.22;;;4.40;99.90;;;;;;5050636;28;20425;-81
2023/01/26 08:23:01;;;;;;;46.15;5.72;;;4.40;99.90;;;;;;5036165;28;20091;-79
2023/01/26 08:25:48;;;;;;;45.40;6.20;;;4.40;99.90;;;;;;5050972;28;20263;-77
2023/01/26 08:28:35;;;;;;;50.72;5.00;;;4.40;99.90;;;;;;5050719;28;20049;-79
2023/01/26 08:31:23;;;;;;;42.08;4.20;;;4.40;99.90;;;;;;5051443;28;20110;-78
2023/01/26 08:34:09;;;;;;;38.28;5.90;;;4.40;99.90;;;;;;5050886;28;20102;-80
2023/01/26 08:36:55;;;;;;;34.10;5.13;;;4.50;99.90;;;;;;5050798;28;20053;-79
2023/01/26 08:39:41;;;;;;;33.92;5.70;;;4.60;99.90;;;;;;5032265;28;20493;-82
2023/01/26 08:42:27;;;;;;;50.38;6.80;;;4.60;99.90;;;;;;5052461;28;20049;-78
2023/01/26 08:45:13;;;;;;;32.53;4.30;;;4.80;99.90;;;;;;5049439;28;20041;-80
2023/01/26 08:47:59;;;;;;;43.13;6.93;;;4.90;99.90;;;;;;5032427;28;20144;-78
2023/01/26 08:50:46;;;;;;;23.95;4.72;;;5.10;99.90;;;;;;5054155;28;20114;-79
2023/01/26 08:53:33;;;;;;;48.88;6.35;;;5.30;99.90;;;;;;5035316;28;20436;-79
2023/01/26 08:56:19;;;;;;;30.70;6.47;;;5.60;99.90;;;;;;5053674;28;20049;-82
2023/01/26 08:59:06;;;;;;;32.75;5.05;;;5.80;99.90;;;;;;5050792;28;20053;-81
2023/01/26 09:01:54;;;;;;;25.88;3.88;;;6.00;99.90;;;;;;5020125;28;20045;-80
2023/01/26 09:04:40;;;;;;;26.02;5.07;;;6.00;99.90;;;;;;5049566;28;20064;-80
2023/01/26 09:07:26;;;;;;;32.17;4.85;;;6.10;99.90;;;;;;5029046;28;20058;-80
2023/01/26 09:10:13;;;;;;;37.42;5.13;;;6.10;99.90;;;;;;5032093;28;20046;-80
2023/01/26 09:13:00;;;;;;;40.47;6.18;;;6.10;99.90;;;;;;5034363;28;20054;-81
2023/01/26 09:15:46;;;;;;;37.70;5.38;;;6.20;99.90;;;;;;5029834;28;20849;-79
2023/01/26 09:18:33;;;;;;;36.78;4.18;;;6.20;99.90;;;;;;5030776;28;20137;-80
2023/01/26 09:21:19;;;;;;;35.50;5.72;;;6.20;99.90;;;;;;5029538;28;20116;-79
2023/01/26 09:24:06;;;;;;;23.38;3.33;;;6.20;99.90;;;;;;5029364;28;20440;-80
2023/01/26 09:26:52;;;;;;;20.75;2.95;;;6.40;99.90;;;;;;5030753;28;20784;-80
2023/01/26 09:29:38;;;;;;;28.58;4.80;;;6.40;99.90;;;;;;5028461;28;20587;-80
2023/01/26 09:32:24;;;;;;;28.42;4.35;;;6.50;99.90;;;;;;5030482;28;20057;-79
2023/01/26 09:35:10;;;;;;;26.88;4.55;;;6.50;99.90;;;;;;5033711;28;20049;-80
2023/01/26 09:37:56;;;;;;;31.23;4.70;;;6.70;99.90;;;;;;5034397;28;20088;-79
2023/01/26 09:41:07;;;;;;;25.10;3.50;;;6.80;99.90;;;;;;5034536;28;20045;-83
2023/01/26 09:44:25;;;;;;;28.70;3.92;;;6.80;99.90;;;;;;5034707;28;20049;-79
2023/01/26 09:47:15;;;;;;;18.13;3.67;;;6.80;99.90;;;;;;5034277;28;20516;-78
2023/01/26 09:50:18;;;;;;;33.80;6.65;;;6.80;99.90;;;;;;5032618;28;20480;-81
2023/01/26 09:53:11;;;;;;;18.88;3.53;;;6.80;99.90;;;;;;5033380;28;20448;-78
2023/01/26 09:55:57;;;;;;;23.13;4.50;;;6.70;99.90;;;;;;5037100;28;20056;-80
2023/01/26 09:59:05;;;;;;;20.55;3.15;;;6.70;99.90;;;;;;5038149;28;20077;-79
2023/01/26 10:02:17;;;;;;;23.50;4.07;;;6.60;99.90;;;;;;5033592;28;20393;-79
2023/01/26 10:05:26;;;;;;;20.48;3.17;;;6.50;99.90;;;;;;5034122;28;20136;-80
2023/01/26 10:08:15;;;;;;;20.08;3.28;;;6.70;99.90;;;;;;5034223;28;20088;-81
2023/01/26 10:11:09;;;;;;;37.42;5.65;;;7.00;99.90;;;;;;5033033;28;20053;-79
2023/01/26 10:14:01;;;;;;;24.30;3.08;;;7.40;99.90;;;;;;5034096;28;20050;-84
2023/01/26 10:16:50;;;;;;;24.55;4.88;;;7.80;99.90;;;;;;5038574;28;20164;-80
2023/01/26 10:19:57;;;;;;;23.35;3.90;;;7.90;99.90;;;;;;5034029;28;20057;-81
2023/01/26 10:22:47;;;;;;;29.02;4.60;;;7.90;99.90;;;;;;5033601;28;20045;-80
2023/01/26 10:25:37;;;;;;;23.80;4.63;;;8.10;99.90;;;;;;5034027;28;20045;-80
2023/01/26 10:28:28;;;;;;;17.92;3.28;;;8.00;99.90;;;;;;5033698;28;20405;-82
2023/01/26 10:31:15;;;;;;;17.15;2.42;;;7.90;99.90;;;;;;5031316;28;20057;-83
2023/01/26 10:34:14;;;;;;;24.75;3.17;;;7.80;99.90;;;;;;5035736;28;20052;-80
2023/01/26 10:37:22;;;;;;;27.58;5.10;;;7.90;99.90;;;;;;5033113;28;20064;-80
2023/01/26 10:40:09;;;;;;;21.65;2.70;;;7.80;99.90;;;;;;5031725;28;20068;-81
2023/01/26 10:42:57;;;;;;;19.35;4.00;;;7.90;99.90;;;;;;5031725;28;20057;-80
2023/01/26 10:45:45;;;;;;;25.65;4.03;;;7.90;99.90;;;;;;5032406;28;20494;-80
2023/01/26 10:48:33;;;;;;;16.40;2.78;;;7.90;99.90;;;;;;5031332;28;20505;-83
2023/01/26 10:51:25;;;;;;;18.77;3.25;;;7.80;99.90;;;;;;5031589;28;20096;-82
2023/01/26 10:54:24;;;;;;;27.63;4.50;;;7.70;99.90;;;;;;5036809;28;20053;-79
2023/01/26 10:57:13;;;;;;;23.58;3.05;;;8.10;99.90;;;;;;5032344;28;20621;-80
2023/01/26 11:00:07;;;;;;;28.85;5.90;;;8.70;99.90;;;;;;5031327;28;20053;-78
2023/01/26 11:02:59;;;;;;;18.30;3.55;;;9.30;99.90;;;;;;5033887;28;20045;-80
2023/01/26 11:05:48;;;;;;;29.30;3.70;;;9.70;99.90;;;;;;5038624;28;20465;-79
2023/01/26 11:08:38;;;;;;;23.00;3.20;;;9.90;99.90;;;;;;5054017;28;20080;-83
2023/01/26 11:11:26;;;;;;;12.93;2.00;;;9.90;99.90;;;;;;5053447;28;20059;-82
2023/01/26 11:14:16;;;;;;;12.40;2.72;;;9.90;99.90;;;;;;5051343;28;20048;-80
2023/01/26 11:17:24;;;;;;;21.15;2.53;;;9.70;99.90;;;;;;5052920;28;20052;-80
2023/01/26 11:20:25;;;;;;;30.27;4.78;;;9.50;99.90;;;;;;5021490;28;20563;-80
2023/01/26 11:23:38;;;;;;;11.63;2.30;;;9.50;99.90;;;;;;5021389;28;20131;-81
2023/01/26 11:26:50;;;;;;;20.13;2.78;;;9.40;99.90;;;;;;5051227;28;20045;-80
2023/01/26 11:29:57;;;;;;;23.70;3.83;;;9.30;99.90;;;;;;5029044;28;20151;-82
2023/01/26 11:32:59;;;;;;;16.23;3.15;;;9.30;99.90;;;;;;5035901;28;20053;-84
2023/01/26 11:36:03;;;;;;;17.35;3.20;;;9.20;99.90;;;;;;5035278;28;20049;-80
2023/01/26 11:39:07;;;;;;;15.25;3.30;;;9.10;99.90;;;;;;5052147;28;20063;-79
2023/01/26 11:42:50;;;;;;;17.05;2.20;;;9.00;99.90;;;;;;5052144;28;20118;-81
2023/01/26 11:46:10;;;;;;;17.38;2.55;;;8.90;99.90;;;;;;4951449;28;20051;-81
2023/01/26 11:49:17;;;;;;;17.40;3.03;;;8.60;99.90;;;;;;4952340;28;20043;-81
2023/01/26 11:52:18;;;;;;;16.05;2.35;;;8.40;99.90;;;;;;5052221;28;20045;-81
2023/01/26 11:55:35;;;;;;;14.07;1.77;;;8.20;99.90;;;;;;5051792;28;20129;-80
2023/01/26 11:58:34;;;;;;;15.77;2.67;;;8.20;99.90;;;;;;5033296;28;20049;-80
2023/01/26 12:01:35;;;;;;;16.83;3.70;;;8.10;99.90;;;;;;5020242;28;20060;-82
2023/01/26 12:04:21;;;;;;;17.42;3.50;;;8.20;99.90;;;;;;5020537;28;20089;-81
2023/01/26 12:07:21;;;;;;;18.50;3.97;;;8.20;99.90;;;;;;5049980;28;20776;-80
2023/01/26 12:10:12;;;;;;;19.23;2.20;;;8.40;99.90;;;;;;5054978;28;20040;-84
2023/01/26 12:13:13;;;;;;;14.50;2.45;;;8.40;99.90;;;;;;5053116;28;20049;-85
2023/01/26 12:16:07;;;;;;;17.50;3.40;;;8.70;99.90;;;;;;5050742;28;20049;-80
2023/01/26 12:19:22;;;;;;;14.55;2.83;;;9.50;99.90;;;;;;5049974;28;20048;-81
2023/01/26 12:22:12;;;;;;;11.57;1.80;;;9.60;99.90;;;;;;5050797;28;20071;-83
2023/01/26 12:25:12;;;;;;;22.08;4.10;;;9.90;99.90;;;;;;5050821;28;20049;-83
2023/01/26 12:28:20;;;;;;;17.50;2.35;;;9.80;99.90;;;;;;5051632;28;20049;-84
2023/01/26 12:31:22;;;;;;;32.22;5.32;;;9.70;99.90;;;;;;5037439;28;20462;-80
2023/01/26 12:34:12;;;;;;;18.45;3.53;;;10.10;99.90;;;;;;5049230;28;20502;-79
2023/01/26 12:37:10;;;;;;;15.82;3.28;;;10.30;99.90;;;;;;5050652;28;20056;-79
2023/01/26 12:40:49;;;;;;;13.23;2.60;;;10.00;99.90;;;;;;5036997;28;20092;-81
2023/01/26 12:44:00;;;;;;;13.23;3.15;;;9.60;99.90;;;;;;4955439;28;20485;-80
2023/01/26 12:46:56;;;;;;;21.40;2.58;;;9.30;99.90;;;;;;5032913;28;20102;-85
2023/01/26 12:50:21;;;;;;;11.05;3.28;;;9.10;99.90;;;;;;5039105;28;20053;-80
2023/01/26 12:53:31;;;;;;;14.45;3.17;;;8.90;99.90;;;;;;5032428;28;20493;-83
2023/01/26 12:56:27;;;;;;;17.48;2.63;;;8.70;99.90;;;;;;5050244;28;20828;-80
2023/01/26 12:59:28;;;;;;;18.63;2.55;;;8.60;99.90;;;;;;5050350;28;20122;-80
2023/01/26 13:02:14;;;;;;;11.68;2.20;;;8.50;99.90;;;;;;5051019;28;20056;-81
2023/01/26 13:05:02;;;;;;;24.98;4.47;;;8.50;99.90;;;;;;5050624;28;20045;-85
2023/01/26 13:07:48;;;;;;;19.60;2.58;;;8.30;99.90;;;;;;5037290;28;20144;-80
2023/01/26 13:10:48;;;;;;;10.35;2.45;;;8.20;99.90;;;;;;5053183;28;20057;-80
2023/01/26 13:13:54;;;;;;;19.17;2.75;;;8.20;99.90;;;;;;5035316;28;20053;-82
2023/01/26 13:16:40;;;;;;;18.85;2.80;;;8.10;99.90;;;;;;5034613;28;20115;-85
2023/01/26 13:19:50;;;;;;;17.45;3.20;;;8.10;99.90;;;;;;5051745;28;20045;-83
2023/01/26 13:22:40;;;;;;;15.98;2.40;;;8.00;99.90;;;;;;5052671;28;20045;-84
2023/01/26 13:25:32;;;;;;;23.10;3.30;;;7.90;99.90;;;;;;5036893;28;20045;-82
2023/01/26 13:28:27;;;;;;;16.05;2.25;;;7.90;99.90;;;;;;5049026;28;20632;-80
2023/01/26 13:31:32;;;;;;;15.70;2.22;;;7.90;99.90;;;;;;5050310;28;20493;-80
2023/01/26 13:34:31;;;;;;;13.80;2.55;;;7.80;99.90;;;;;;5050215;28;20588;-80
2023/01/26 13:37:47;;;;;;;14.48;2.00;;;7.80;99.90;;;;;;5049111;28;20071;-80
2023/01/26 13:40:40;;;;;;;25.17;3.35;;;7.80;99.90;;;;;;5051715;28;20187;-84
2023/01/26 13:43:48;;;;;;;15.82;3.15;;;7.70;99.90;;;;;;5054289;28;20052;-79
2023/01/26 13:46:41;;;;;;;20.80;2.92;;;7.80;99.90;;;;;;5050014;28;20140;-81
2023/01/26 13:49:39;;;;;;;30.63;4.22;;;7.80;99.90;;;;;;5049666;28;20057;-80
2023/01/26 13:52:26;;;;;;;27.10;3.13;;;7.80;99.90;;;;;;5048549;28;20467;-82
2023/01/26 13:55:24;;;;;;;20.33;5.03;;;7.90;99.90;;;;;;5049302;28;20052;-85
2023/01/26 13:58:15;;;;;;;17.63;3.10;;;8.00;99.90;;;;;;5051061;28;20128;-79
2023/01/26 14:01:04;;;;;;;24.73;3.85;;;8.00;99.90;;;;;;5049835;28;20052;-81
2023/01/26 14:04:04;;;;;;;16.30;2.80;;;7.90;99.90;;;;;;5048560;28;20405;-80
2023/01/26 14:07:17;;;;;;;15.57;2.45;;;8.00;99.90;;;;;;5048822;28;20398;-83
2023/01/26 14:10:05;;;;;;;18.98;2.67;;;8.00;99.90;;;;;;5032271;28;20118;-80
2023/01/26 14:12:55;;;;;;;20.63;3.17;;;8.00;99.90;;;;;;5049316;28;20053;-84
2023/01/26 14:15:41;;;;;;;29.05;3.60;;;7.90;99.90;;;;;;5051638;28;20052;-81
2023/01/26 14:18:27;;;;;;;27.23;4.28;;;7.80;99.90;;;;;;5049166;28;20045;-80
2023/01/26 14:21:18;;;;;;;17.83;2.90;;;7.80;99.90;;;;;;5051886;28;20106;-82
2023/01/26 14:24:07;;;;;;;28.30;3.65;;;7.80;99.90;;;;;;5052197;28;20126;-81
2023/01/26 14:26:53;;;;;;;21.40;3.50;;;7.80;99.90;;;;;;5052242;28;20409;-81
2023/01/26 14:29:40;;;;;;;17.83;3.85;;;7.80;99.90;;;;;;5051859;28;20052;-83
2023/01/26 14:32:28;;;;;;;15.25;3.28;;;8.00;99.90;;;;;;5055343;28;20099;-82
2023/01/26 14:35:22;;;;;;;20.88;3.45;;;8.40;99.90;;;;;;5052851;28;20045;-80
2023/01/26 14:38:11;;;;;;;16.90;2.95;;;8.50;99.90;;;;;;5037077;28;20059;-81
2023/01/26 14:40:59;;;;;;;22.38;3.47;;;8.60;99.90;;;;;;5040368;28;20056;-81
2023/01/26 14:43:48;;;;;;;26.15;3.53;;;8.80;99.90;;;;;;5053074;28;20041;-83
2023/01/26 14:46:51;;;;;;;14.75;2.78;;;8.90;99.90;;;;;;5052835;28;20183;-85
2023/01/26 14:49:49;;;;;;;24.92;3.80;;;8.90;99.90;;;;;;5054670;28;20053;-84
2023/01/26 14:52:37;;;;;;;16.77;3.00;;;9.40;99.90;;;;;;5054530;28;20057;-84
2023/01/26 14:55:30;;;;;;;20.70;3.53;;;9.80;99.90;;;;;;5052691;28;20044;-84
2023/01/26 14:58:26;;;;;;;31.90;3.17;;;9.80;99.90;;;;;;5052609;28;20128;-84
2023/01/26 15:01:24;;;;;;;17.73;2.83;;;10.20;99.90;;;;;;5052643;28;20100;-79
2023/01/26 15:04:33;;;;;;;17.70;3.72;;;10.00;99.90;;;;;;5055957;28;20404;-82
2023/01/26 15:07:36;;;;;;;27.38;3.05;;;9.70;99.90;;;;;;5057447;28;20060;-83
2023/01/26 15:10:39;;;;;;;17.88;3.58;;;9.10;99.90;;;;;;5052760;28;20137;-80
2023/01/26 15:13:29;;;;;;;16.75;2.85;;;8.70;99.90;;;;;;5035066;28;20049;-84
2023/01/26 15:16:20;;;;;;;13.57;2.40;;;8.50;99.90;;;;;;5050994;28;20041;-82
2023/01/26 15:19:23;;;;;;;15.70;2.63;;;8.20;99.90;;;;;;5052514;28;20508;-81
2023/01/26 15:22:19;;;;;;;18.80;4.03;;;8.00;99.90;;;;;;5052748;28;20067;-80
2023/01/26 15:25:24;;;;;;;13.57;2.28;;;7.80;99.90;;;;;;5058586;28;20136;-81
2023/01/26 15:28:24;;;;;;;13.75;2.63;;;7.70;99.90;;;;;;5058880;28;20363;-85
2023/01/26 15:31:44;;;;;;;22.92;3.38;;;7.50;99.90;;;;;;5056860;28;20041;-84
2023/01/26 15:34:33;;;;;;;27.67;3.75;;;7.40;99.90;;;;;;5061071;28;20056;-84